Nanaimo Airport

METAR CYCD TAF CYCD
5 °C
°C
-
°C
57m
Age
16:57:06
LT
15:57
UTC
0 ft

1,000

2,000

3,000

4,000

5,000

BKN 1,000
OVC 4,200
MVFR
<?= Yii::t('app', 'Wind direction') ?> <?= Yii::t('app', 'of'); ?>
VAR
17:17
Sunset
100%
Humidity
Wind shear
Closed/Snow
RWY visual range
RWY condition
Vert. visibility
Min. visibility
CAVOK
Trend
Correction
Special report
29.95 inHg
QNH
METAR CYCD 041500Z VRB04KT 10SM BKN010 OVC042 05/05 A2995 RMK SC6SC2 SLP144
Overcast
0 kt
0 kt
08:00
MVFR
3 kt
09:00
MVFR
3 kt
10:00
MVFR
3 kt
11:00
MVFR
3 kt
12:00
IFR
6 kt
13:00
IFR
6 kt
14:00
IFR
6 kt
10 mi
Visibility
1,000 ft
Ceiling
4 kt
Wind
metar-taf.com/CYCD

Metar-Taf.com

Visual decoder

We and third parties follow your internet behavior on our website with cookies. If you continue, we assume you agree with our cookie policy.